sensor_id;sensor_type;location;lat;lon;timestamp;pressure;altitude;pressure_sealevel;temperature;humidity
7834;BME280;3962;42.696;23.354;2023-02-23T00:02:19;95033.78;;;6.82;72.22
7834;BME280;3962;42.696;23.354;2023-02-23T00:04:49;95033.59;;;6.74;72.69
7834;BME280;3962;42.696;23.354;2023-02-23T00:07:32;95048.69;;;6.63;73.25
7834;BME280;3962;42.696;23.354;2023-02-23T00:10:19;95054.28;;;6.49;72.79
7834;BME280;3962;42.696;23.354;2023-02-23T00:12:47;95049.06;;;6.38;73.06
7834;BME280;3962;42.696;23.354;2023-02-23T00:15:15;95050.31;;;6.34;73.56
7834;BME280;3962;42.696;23.354;2023-02-23T00:17:43;95050.31;;;6.34;73.95
7834;BME280;3962;42.696;23.354;2023-02-23T00:20:24;95044.16;;;6.33;74.23
7834;BME280;3962;42.696;23.354;2023-02-23T00:22:53;95056.59;;;6.42;73.76
7834;BME280;3962;42.696;23.354;2023-02-23T00:25:30;95051.78;;;6.47;73.67
7834;BME280;3962;42.696;23.354;2023-02-23T00:27:59;95059.72;;;6.47;73.24
7834;BME280;3962;42.696;23.354;2023-02-23T00:30:28;95053.25;;;6.40;73.48
7834;BME280;3962;42.696;23.354;2023-02-23T00:32:59;95058.66;;;6.39;74.28
7834;BME280;3962;42.696;23.354;2023-02-23T00:36:01;95050.16;;;6.35;73.14
7834;BME280;3962;42.696;23.354;2023-02-23T00:38:29;95055.38;;;6.26;74.08
7834;BME280;3962;42.696;23.354;2023-02-23T00:41:06;95057.44;;;6.22;73.77
7834;BME280;3962;42.696;23.354;2023-02-23T00:43:36;95058.03;;;6.26;75.01
7834;BME280;3962;42.696;23.354;2023-02-23T00:46:13;95052.47;;;6.29;74.20
7834;BME280;3962;42.696;23.354;2023-02-23T00:48:42;95058.03;;;6.26;74.58
7834;BME280;3962;42.696;23.354;2023-02-23T00:51:13;95050.22;;;6.24;74.61
7834;BME280;3962;42.696;23.354;2023-02-23T00:53:47;95051.78;;;6.27;73.65
7834;BME280;3962;42.696;23.354;2023-02-23T00:56:15;95053.09;;;6.21;73.85
7834;BME280;3962;42.696;23.354;2023-02-23T00:58:46;95047.16;;;6.08;73.81
7834;BME280;3962;42.696;23.354;2023-02-23T01:01:16;95048.84;;;6.09;74.39
7834;BME280;3962;42.696;23.354;2023-02-23T01:03:44;95040.00;;;5.99;74.38
7834;BME280;3962;42.696;23.354;2023-02-23T01:06:16;95041.22;;;5.95;75.44
7834;BME280;3962;42.696;23.354;2023-02-23T01:08:48;95049.34;;;6.03;75.25
7834;BME280;3962;42.696;23.354;2023-02-23T01:11:20;95039.38;;;6.07;74.89
7834;BME280;3962;42.696;23.354;2023-02-23T01:13:53;95046.59;;;6.05;74.76
7834;BME280;3962;42.696;23.354;2023-02-23T01:16:26;95049.09;;;6.06;73.85
7834;BME280;3962;42.696;23.354;2023-02-23T01:18:54;95043.34;;;6.01;74.08
7834;BME280;3962;42.696;23.354;2023-02-23T01:21:28;95047.19;;;5.97;74.77
7834;BME280;3962;42.696;23.354;2023-02-23T01:23:56;95038.84;;;5.92;74.03
7834;BME280;3962;42.696;23.354;2023-02-23T01:26:33;95042.66;;;5.88;74.88
7834;BME280;3962;42.696;23.354;2023-02-23T01:29:10;95038.63;;;5.84;74.88
7834;BME280;3962;42.696;23.354;2023-02-23T01:31:41;95041.72;;;5.78;74.96
7834;BME280;3962;42.696;23.354;2023-02-23T01:34:09;95039.34;;;5.75;75.36
7834;BME280;3962;42.696;23.354;2023-02-23T01:36:41;95046.66;;;5.72;75.00
7834;BME280;3962;42.696;23.354;2023-02-23T01:39:11;95042.00;;;5.64;75.40
7834;BME280;3962;42.696;23.354;2023-02-23T01:41:43;95038.38;;;5.65;75.96
7834;BME280;3962;42.696;23.354;2023-02-23T01:47:23;95040.56;;;5.60;76.00
7834;BME280;3962;42.696;23.354;2023-02-23T01:49:51;95028.56;;;5.56;76.49
7834;BME280;3962;42.696;23.354;2023-02-23T01:52:36;95042.63;;;5.57;76.48
7834;BME280;3962;42.696;23.354;2023-02-23T01:55:13;95042.13;;;5.52;75.92
7834;BME280;3962;42.696;23.354;2023-02-23T01:58:03;95037.22;;;5.47;76.80
7834;BME280;3962;42.696;23.354;2023-02-23T02:00:34;95032.22;;;5.44;77.46
7834;BME280;3962;42.696;23.354;2023-02-23T02:03:07;95037.72;;;5.41;77.05
7834;BME280;3962;42.696;23.354;2023-02-23T02:05:40;95027.16;;;5.41;77.20
7834;BME280;3962;42.696;23.354;2023-02-23T02:08:09;95030.03;;;5.49;77.53
7834;BME280;3962;42.696;23.354;2023-02-23T02:10:45;95033.25;;;5.53;77.71
7834;BME280;3962;42.696;23.354;2023-02-23T02:13:30;95029.22;;;5.49;76.84
7834;BME280;3962;42.696;23.354;2023-02-23T02:19:29;95038.78;;;5.39;76.77
7834;BME280;3962;42.696;23.354;2023-02-23T02:22:21;95034.63;;;5.36;76.67
7834;BME280;3962;42.696;23.354;2023-02-23T02:25:28;95030.09;;;5.27;77.43
7834;BME280;3962;42.696;23.354;2023-02-23T02:28:22;95036.56;;;5.23;77.59
7834;BME280;3962;42.696;23.354;2023-02-23T02:34:25;95044.72;;;5.20;77.66
7834;BME280;3962;42.696;23.354;2023-02-23T02:37:13;95038.97;;;5.15;77.88
7834;BME280;3962;42.696;23.354;2023-02-23T02:39:53;95041.25;;;5.09;78.69
7834;BME280;3962;42.696;23.354;2023-02-23T02:46:32;95035.00;;;5.10;79.30
7834;BME280;3962;42.696;23.354;2023-02-23T02:49:05;95025.16;;;5.12;79.39
7834;BME280;3962;42.696;23.354;2023-02-23T02:51:41;95031.41;;;5.11;79.18
7834;BME280;3962;42.696;23.354;2023-02-23T02:54:19;95031.53;;;5.09;79.46
7834;BME280;3962;42.696;23.354;2023-02-23T02:56:53;95026.72;;;5.14;79.60
7834;BME280;3962;42.696;23.354;2023-02-23T02:59:25;95027.91;;;5.10;78.85
7834;BME280;3962;42.696;23.354;2023-02-23T03:02:13;95038.84;;;5.06;79.44
7834;BME280;3962;42.696;23.354;2023-02-23T03:05:00;95033.31;;;4.98;79.69
7834;BME280;3962;42.696;23.354;2023-02-23T03:08:03;95036.22;;;4.95;80.54
7834;BME280;3962;42.696;23.354;2023-02-23T03:10:59;95037.75;;;4.86;80.38
7834;BME280;3962;42.696;23.354;2023-02-23T03:14:01;95040.63;;;4.83;80.88
7834;BME280;3962;42.696;23.354;2023-02-23T03:16:56;95038.97;;;4.82;80.42
7834;BME280;3962;42.696;23.354;2023-02-23T03:23:08;95043.75;;;4.66;80.17
7834;BME280;3962;42.696;23.354;2023-02-23T03:26:08;95045.41;;;4.67;80.23
7834;BME280;3962;42.696;23.354;2023-02-23T03:29:03;95050.94;;;4.64;80.34
7834;BME280;3962;42.696;23.354;2023-02-23T03:32:04;95051.25;;;4.60;80.57
7834;BME280;3962;42.696;23.354;2023-02-23T03:34:53;95055.59;;;4.61;80.81
7834;BME280;3962;42.696;23.354;2023-02-23T03:37:56;95053.88;;;4.60;81.02
7834;BME280;3962;42.696;23.354;2023-02-23T03:40:48;95053.56;;;4.64;81.11
7834;BME280;3962;42.696;23.354;2023-02-23T03:43:41;95056.06;;;4.66;80.32
7834;BME280;3962;42.696;23.354;2023-02-23T03:46:30;95057.03;;;4.65;80.37
7834;BME280;3962;42.696;23.354;2023-02-23T03:49:17;95063.50;;;4.61;80.16
7834;BME280;3962;42.696;23.354;2023-02-23T03:52:09;95066.97;;;4.61;80.37
7834;BME280;3962;42.696;23.354;2023-02-23T03:54:57;95066.50;;;4.56;80.75
7834;BME280;3962;42.696;23.354;2023-02-23T03:57:51;95065.22;;;4.38;80.84
7834;BME280;3962;42.696;23.354;2023-02-23T04:00:44;95070.75;;;4.46;81.23
7834;BME280;3962;42.696;23.354;2023-02-23T04:03:33;95063.25;;;4.53;81.19
7834;BME280;3962;42.696;23.354;2023-02-23T04:06:23;95071.97;;;4.53;81.03
7834;BME280;3962;42.696;23.354;2023-02-23T04:09:15;95071.97;;;4.42;81.11
7834;BME280;3962;42.696;23.354;2023-02-23T04:12:05;95068.00;;;4.48;81.55
7834;BME280;3962;42.696;23.354;2023-02-23T04:14:55;95070.31;;;4.63;81.19
7834;BME280;3962;42.696;23.354;2023-02-23T04:17:26;95068.66;;;4.73;81.18
7834;BME280;3962;42.696;23.354;2023-02-23T04:19:56;95069.13;;;4.78;80.41
7834;BME280;3962;42.696;23.354;2023-02-23T04:22:29;95067.97;;;4.82;80.29
7834;BME280;3962;42.696;23.354;2023-02-23T04:24:56;95060.88;;;4.83;80.28
7834;BME280;3962;42.696;23.354;2023-02-23T04:27:27;95060.75;;;4.84;79.88
7834;BME280;3962;42.696;23.354;2023-02-23T04:29:54;95068.06;;;4.81;79.11
7834;BME280;3962;42.696;23.354;2023-02-23T04:32:20;95063.16;;;4.76;79.23
7834;BME280;3962;42.696;23.354;2023-02-23T04:34:51;95069.75;;;4.71;79.33
7834;BME280;3962;42.696;23.354;2023-02-23T04:37:18;95071.06;;;4.65;80.37
7834;BME280;3962;42.696;23.354;2023-02-23T04:40:02;95070.19;;;4.65;80.43
7834;BME280;3962;42.696;23.354;2023-02-23T04:42:38;95071.50;;;4.59;79.74
7834;BME280;3962;42.696;23.354;2023-02-23T04:45:07;95068.88;;;4.59;80.32
7834;BME280;3962;42.696;23.354;2023-02-23T04:47:38;95074.03;;;4.61;80.58
7834;BME280;3962;42.696;23.354;2023-02-23T04:50:07;95073.78;;;4.64;80.89
7834;BME280;3962;42.696;23.354;2023-02-23T04:52:35;95064.69;;;4.68;80.37
7834;BME280;3962;42.696;23.354;2023-02-23T04:55:08;95076.69;;;4.72;80.08
7834;BME280;3962;42.696;23.354;2023-02-23T04:57:56;95069.50;;;4.63;80.39
7834;BME280;3962;42.696;23.354;2023-02-23T05:00:29;95070.56;;;4.60;80.21
7834;BME280;3962;42.696;23.354;2023-02-23T05:02:58;95074.25;;;4.58;80.50
7834;BME280;3962;42.696;23.354;2023-02-23T05:05:26;95072.34;;;4.60;80.69
7834;BME280;3962;42.696;23.354;2023-02-23T05:07:53;95077.50;;;4.61;80.48
7834;BME280;3962;42.696;23.354;2023-02-23T05:10:20;95068.28;;;4.56;80.51
7834;BME280;3962;42.696;23.354;2023-02-23T05:12:47;95076.53;;;4.62;80.41
7834;BME280;3962;42.696;23.354;2023-02-23T05:15:14;95067.31;;;4.68;80.85
7834;BME280;3962;42.696;23.354;2023-02-23T05:17:41;95077.75;;;4.69;80.34
7834;BME280;3962;42.696;23.354;2023-02-23T05:20:10;95082.31;;;4.67;80.29
7834;BME280;3962;42.696;23.354;2023-02-23T05:22:39;95081.69;;;4.64;80.21
7834;BME280;3962;42.696;23.354;2023-02-23T05:25:10;95081.09;;;4.60;80.49
7834;BME280;3962;42.696;23.354;2023-02-23T05:27:38;95079.88;;;4.53;80.83
7834;BME280;3962;42.696;23.354;2023-02-23T05:30:06;95088.22;;;4.47;81.62
7834;BME280;3962;42.696;23.354;2023-02-23T05:32:34;95088.97;;;4.49;82.27
7834;BME280;3962;42.696;23.354;2023-02-23T05:35:01;95088.13;;;4.49;82.49
7834;BME280;3962;42.696;23.354;2023-02-23T05:37:28;95094.47;;;4.46;82.73
7834;BME280;3962;42.696;23.354;2023-02-23T05:39:56;95094.47;;;4.46;83.33
7834;BME280;3962;42.696;23.354;2023-02-23T05:42:23;95097.50;;;4.53;83.05
7834;BME280;3962;42.696;23.354;2023-02-23T05:44:50;95099.63;;;4.59;83.32
7834;BME280;3962;42.696;23.354;2023-02-23T05:47:17;95095.94;;;4.61;83.38
7834;BME280;3962;42.696;23.354;2023-02-23T05:49:44;95107.44;;;4.60;83.48
7834;BME280;3962;42.696;23.354;2023-02-23T05:52:11;95111.94;;;5.81;90.25
7834;BME280;3962;42.696;23.354;2023-02-23T05:54:38;95114.34;;;6.58;81.27
7834;BME280;3962;42.696;23.354;2023-02-23T05:57:06;95115.50;;;6.33;78.93
7834;BME280;3962;42.696;23.354;2023-02-23T05:59:33;95117.94;;;5.83;79.18
7834;BME280;3962;42.696;23.354;2023-02-23T06:02:00;95126.22;;;5.56;79.10
7834;BME280;3962;42.696;23.354;2023-02-23T06:04:30;95128.50;;;5.39;79.32
7834;BME280;3962;42.696;23.354;2023-02-23T06:06:57;95127.06;;;5.35;79.51
7834;BME280;3962;42.696;23.354;2023-02-23T06:09:24;95137.72;;;5.33;80.26
7834;BME280;3962;42.696;23.354;2023-02-23T06:11:51;95138.09;;;5.29;81.01
7834;BME280;3962;42.696;23.354;2023-02-23T06:14:19;95136.06;;;5.32;80.89
7834;BME280;3962;42.696;23.354;2023-02-23T06:16:46;95140.38;;;5.33;80.97
7834;BME280;3962;42.696;23.354;2023-02-23T06:19:13;95140.00;;;5.38;80.56
7834;BME280;3962;42.696;23.354;2023-02-23T06:21:40;95140.13;;;5.47;80.78
7834;BME280;3962;42.696;23.354;2023-02-23T06:24:07;95134.97;;;5.46;80.78
7834;BME280;3962;42.696;23.354;2023-02-23T06:26:34;95145.16;;;5.50;80.46
7834;BME280;3962;42.696;23.354;2023-02-23T06:29:01;95143.25;;;5.41;80.31
7834;BME280;3962;42.696;23.354;2023-02-23T06:31:29;95149.97;;;5.45;80.66
7834;BME280;3962;42.696;23.354;2023-02-23T06:33:56;95147.69;;;5.41;80.88
7834;BME280;3962;42.696;23.354;2023-02-23T06:36:23;95144.34;;;5.50;79.94
7834;BME280;3962;42.696;23.354;2023-02-23T06:38:50;95153.06;;;5.50;80.51
7834;BME280;3962;42.696;23.354;2023-02-23T06:41:17;95152.97;;;5.52;79.92
7834;BME280;3962;42.696;23.354;2023-02-23T06:43:43;95156.91;;;5.57;78.71
7834;BME280;3962;42.696;23.354;2023-02-23T06:46:10;95157.16;;;5.54;79.29
7834;BME280;3962;42.696;23.354;2023-02-23T06:48:38;95160.06;;;5.51;78.87
7834;BME280;3962;42.696;23.354;2023-02-23T06:51:05;95151.75;;;5.45;78.36
7834;BME280;3962;42.696;23.354;2023-02-23T06:53:32;95158.84;;;5.44;79.12
7834;BME280;3962;42.696;23.354;2023-02-23T06:55:59;95164.84;;;5.46;78.47
7834;BME280;3962;42.696;23.354;2023-02-23T06:58:26;95159.94;;;5.42;78.48
7834;BME280;3962;42.696;23.354;2023-02-23T07:00:54;95154.66;;;5.42;79.41
7834;BME280;3962;42.696;23.354;2023-02-23T07:03:23;95155.16;;;5.47;78.92
7834;BME280;3962;42.696;23.354;2023-02-23T07:05:51;95158.59;;;5.58;79.17
7834;BME280;3962;42.696;23.354;2023-02-23T07:08:19;95150.91;;;5.77;79.40
7834;BME280;3962;42.696;23.354;2023-02-23T07:10:46;95157.16;;;5.87;78.10
7834;BME280;3962;42.696;23.354;2023-02-23T07:13:12;95150.91;;;5.99;77.39
7834;BME280;3962;42.696;23.354;2023-02-23T07:15:41;95151.38;;;6.15;78.05
7834;BME280;3962;42.696;23.354;2023-02-23T07:18:08;95143.66;;;6.23;77.11
7834;BME280;3962;42.696;23.354;2023-02-23T07:20:36;95148.19;;;6.32;77.13
7834;BME280;3962;42.696;23.354;2023-02-23T07:23:04;95159.44;;;6.45;76.47
7834;BME280;3962;42.696;23.354;2023-02-23T07:25:31;95161.06;;;6.57;75.99
7834;BME280;3962;42.696;23.354;2023-02-23T07:27:58;95155.13;;;6.65;75.84
7834;BME280;3962;42.696;23.354;2023-02-23T07:30:25;95149.22;;;6.72;75.28
7834;BME280;3962;42.696;23.354;2023-02-23T07:32:53;95148.56;;;7.00;74.88
7834;BME280;3962;42.696;23.354;2023-02-23T07:35:20;95149.81;;;7.16;73.22
7834;BME280;3962;42.696;23.354;2023-02-23T07:37:50;95144.31;;;7.29;72.64
7834;BME280;3962;42.696;23.354;2023-02-23T07:40:20;95150.47;;;7.39;73.08
7834;BME280;3962;42.696;23.354;2023-02-23T07:42:47;95144.66;;;7.45;72.70
7834;BME280;3962;42.696;23.354;2023-02-23T07:45:14;95147.66;;;7.61;71.90
7834;BME280;3962;42.696;23.354;2023-02-23T07:47:41;95149.69;;;7.78;71.98
7834;BME280;3962;42.696;23.354;2023-02-23T07:50:09;95147.75;;;7.89;70.85
7834;BME280;3962;42.696;23.354;2023-02-23T07:52:40;95132.19;;;7.96;70.55
7834;BME280;3962;42.696;23.354;2023-02-23T07:55:07;95135.56;;;8.07;69.67
7834;BME280;3962;42.696;23.354;2023-02-23T07:57:37;95134.06;;;8.14;69.31
7834;BME280;3962;42.696;23.354;2023-02-23T08:00:05;95132.28;;;8.24;68.77
7834;BME280;3962;42.696;23.354;2023-02-23T08:02:32;95144.84;;;8.32;68.65
7834;BME280;3962;42.696;23.354;2023-02-23T08:04:59;95138.16;;;8.47;68.81
7834;BME280;3962;42.696;23.354;2023-02-23T08:07:26;95138.19;;;8.56;68.03
7834;BME280;3962;42.696;23.354;2023-02-23T08:09:53;95125.91;;;8.55;68.67
7834;BME280;3962;42.696;23.354;2023-02-23T08:12:20;95132.91;;;8.66;68.45
7834;BME280;3962;42.696;23.354;2023-02-23T08:14:48;95131.75;;;8.78;68.10
7834;BME280;3962;42.696;23.354;2023-02-23T08:17:15;95122.53;;;8.91;67.48
7834;BME280;3962;42.696;23.354;2023-02-23T08:19:42;95125.75;;;9.04;67.27
7834;BME280;3962;42.696;23.354;2023-02-23T08:22:09;95132.16;;;9.21;66.67
7834;BME280;3962;42.696;23.354;2023-02-23T08:24:38;95119.88;;;9.93;65.16
7834;BME280;3962;42.696;23.354;2023-02-23T08:27:05;95138.47;;;11.16;61.86
7834;BME280;3962;42.696;23.354;2023-02-23T08:29:31;95133.16;;;12.26;58.19
7834;BME280;3962;42.696;23.354;2023-02-23T08:32:02;95131.06;;;13.19;55.15
7834;BME280;3962;42.696;23.354;2023-02-23T08:34:29;95130.16;;;13.99;52.98
7834;BME280;3962;42.696;23.354;2023-02-23T08:36:56;95134.81;;;14.81;50.35
7834;BME280;3962;42.696;23.354;2023-02-23T08:39:27;95137.25;;;15.66;48.37
7834;BME280;3962;42.696;23.354;2023-02-23T08:41:54;95132.97;;;16.09;47.07
7834;BME280;3962;42.696;23.354;2023-02-23T08:44:21;95132.41;;;15.99;46.89
7834;BME280;3962;42.696;23.354;2023-02-23T08:46:49;95123.84;;;15.81;46.66
7834;BME280;3962;42.696;23.354;2023-02-23T08:49:19;95138.88;;;15.90;46.90
7834;BME280;3962;42.696;23.354;2023-02-23T08:51:46;95138.97;;;15.96;46.68
7834;BME280;3962;42.696;23.354;2023-02-23T08:54:13;95135.16;;;15.91;46.37
7834;BME280;3962;42.696;23.354;2023-02-23T08:56:42;95131.72;;;15.82;46.71
7834;BME280;3962;42.696;23.354;2023-02-23T08:59:11;95126.53;;;15.81;46.47
7834;BME280;3962;42.696;23.354;2023-02-23T09:01:38;95128.53;;;16.01;45.74
7834;BME280;3962;42.696;23.354;2023-02-23T09:04:06;95131.38;;;15.85;46.20
7834;BME280;3962;42.696;23.354;2023-02-23T09:06:36;95125.25;;;15.91;46.05
7834;BME280;3962;42.696;23.354;2023-02-23T09:09:03;95127.03;;;16.13;45.71
7834;BME280;3962;42.696;23.354;2023-02-23T09:11:29;95125.19;;;16.14;45.63
7834;BME280;3962;42.696;23.354;2023-02-23T09:13:56;95106.13;;;16.09;45.25
7834;BME280;3962;42.696;23.354;2023-02-23T09:16:23;95124.19;;;16.15;45.39
7834;BME280;3962;42.696;23.354;2023-02-23T09:18:50;95117.63;;;16.17;45.62
7834;BME280;3962;42.696;23.354;2023-02-23T09:21:19;95120.56;;;16.08;45.88
7834;BME280;3962;42.696;23.354;2023-02-23T09:23:51;95124.06;;;16.08;45.90
7834;BME280;3962;42.696;23.354;2023-02-23T09:26:21;95119.34;;;15.96;45.91
7834;BME280;3962;42.696;23.354;2023-02-23T09:28:48;95119.25;;;15.89;46.09
7834;BME280;3962;42.696;23.354;2023-02-23T09:31:17;95118.13;;;15.98;45.97
7834;BME280;3962;42.696;23.354;2023-02-23T09:33:44;95116.00;;;16.08;46.00
7834;BME280;3962;42.696;23.354;2023-02-23T09:36:12;95118.22;;;15.90;45.89
7834;BME280;3962;42.696;23.354;2023-02-23T09:38:40;95115.84;;;15.95;45.97
7834;BME280;3962;42.696;23.354;2023-02-23T09:41:43;95122.13;;;16.17;45.69
7834;BME280;3962;42.696;23.354;2023-02-23T09:44:17;95118.59;;;16.16;45.51
7834;BME280;3962;42.696;23.354;2023-02-23T09:46:52;95121.13;;;16.18;45.34
7834;BME280;3962;42.696;23.354;2023-02-23T09:49:28;95116.22;;;16.21;45.30
7834;BME280;3962;42.696;23.354;2023-02-23T09:51:57;95111.41;;;16.17;45.71
7834;BME280;3962;42.696;23.354;2023-02-23T09:54:27;95112.50;;;16.08;45.92
7834;BME280;3962;42.696;23.354;2023-02-23T09:56:56;95108.34;;;16.49;45.02
7834;BME280;3962;42.696;23.354;2023-02-23T09:59:24;95103.72;;;16.28;45.35
7834;BME280;3962;42.696;23.354;2023-02-23T10:02:04;95103.00;;;16.49;45.06
7834;BME280;3962;42.696;23.354;2023-02-23T10:04:40;95107.09;;;16.45;45.09
7834;BME280;3962;42.696;23.354;2023-02-23T10:07:13;95104.56;;;16.43;45.54
7834;BME280;3962;42.696;23.354;2023-02-23T10:09:55;95097.72;;;16.41;45.43
7834;BME280;3962;42.696;23.354;2023-02-23T10:12:32;95089.84;;;16.25;45.62
7834;BME280;3962;42.696;23.354;2023-02-23T10:15:13;95099.72;;;16.10;45.54
7834;BME280;3962;42.696;23.354;2023-02-23T10:17:49;95099.47;;;16.05;45.70
7834;BME280;3962;42.696;23.354;2023-02-23T10:20:26;95096.66;;;15.98;45.92
7834;BME280;3962;42.696;23.354;2023-02-23T10:23:03;95094.28;;;16.03;45.90
7834;BME280;3962;42.696;23.354;2023-02-23T10:25:35;95086.59;;;16.15;45.70
7834;BME280;3962;42.696;23.354;2023-02-23T10:28:11;95084.94;;;16.28;45.72
7834;BME280;3962;42.696;23.354;2023-02-23T10:30:40;95075.84;;;16.44;45.59
7834;BME280;3962;42.696;23.354;2023-02-23T10:33:13;95079.56;;;16.43;45.38
7834;BME280;3962;42.696;23.354;2023-02-23T10:35:41;95069.19;;;16.11;46.03
7834;BME280;3962;42.696;23.354;2023-02-23T10:38:13;95071.03;;;15.96;46.74
7834;BME280;3962;42.696;23.354;2023-02-23T10:40:41;95064.91;;;15.58;47.44
7834;BME280;3962;42.696;23.354;2023-02-23T10:43:11;95065.38;;;15.76;48.09
7834;BME280;3962;42.696;23.354;2023-02-23T10:45:43;95059.44;;;16.24;46.19
7834;BME280;3962;42.696;23.354;2023-02-23T10:48:16;95052.81;;;16.20;45.98
7834;BME280;3962;42.696;23.354;2023-02-23T10:50:44;95049.38;;;16.12;46.22
7834;BME280;3962;42.696;23.354;2023-02-23T10:53:18;95046.91;;;16.10;46.24
7834;BME280;3962;42.696;23.354;2023-02-23T10:56:00;95046.88;;;16.25;46.02
7834;BME280;3962;42.696;23.354;2023-02-23T10:58:29;95026.69;;;16.43;45.64
7834;BME280;3962;42.696;23.354;2023-02-23T11:00:58;95038.25;;;16.58;45.29
7834;BME280;3962;42.696;23.354;2023-02-23T11:03:29;95038.13;;;16.52;45.38
7834;BME280;3962;42.696;23.354;2023-02-23T11:05:57;95034.47;;;16.74;45.07
7834;BME280;3962;42.696;23.354;2023-02-23T11:08:27;95031.78;;;16.53;45.19
7834;BME280;3962;42.696;23.354;2023-02-23T11:11:04;95024.59;;;16.60;45.08
7834;BME280;3962;42.696;23.354;2023-02-23T11:13:38;95022.69;;;16.54;44.74
7834;BME280;3962;42.696;23.354;2023-02-23T11:16:09;95024.75;;;16.73;44.49
7834;BME280;3962;42.696;23.354;2023-02-23T11:18:39;95020.94;;;16.46;44.06
7834;BME280;3962;42.696;23.354;2023-02-23T11:21:11;95024.59;;;16.39;44.05
7834;BME280;3962;42.696;23.354;2023-02-23T11:23:40;95022.53;;;16.26;44.54
7834;BME280;3962;42.696;23.354;2023-02-23T11:26:20;95009.28;;;16.39;44.56
7834;BME280;3962;42.696;23.354;2023-02-23T11:28:53;95012.75;;;16.54;44.15
7834;BME280;3962;42.696;23.354;2023-02-23T11:31:22;95004.91;;;16.74;44.02
7834;BME280;3962;42.696;23.354;2023-02-23T11:33:54;95007.22;;;16.56;44.37
7834;BME280;3962;42.696;23.354;2023-02-23T11:36:26;95003.25;;;16.73;44.39
7834;BME280;3962;42.696;23.354;2023-02-23T11:39:01;95000.72;;;16.86;44.53
7834;BME280;3962;42.696;23.354;2023-02-23T11:41:29;94997.13;;;16.79;44.07
7834;BME280;3962;42.696;23.354;2023-02-23T11:44:01;94995.44;;;16.57;44.19
7834;BME280;3962;42.696;23.354;2023-02-23T11:46:30;94989.63;;;16.53;43.46
7834;BME280;3962;42.696;23.354;2023-02-23T11:48:59;94988.41;;;16.56;43.29
7834;BME280;3962;42.696;23.354;2023-02-23T11:51:30;94988.28;;;16.64;43.06
7834;BME280;3962;42.696;23.354;2023-02-23T11:53:57;94986.81;;;16.61;43.37
7834;BME280;3962;42.696;23.354;2023-02-23T11:56:27;94983.63;;;16.72;43.26
7834;BME280;3962;42.696;23.354;2023-02-23T11:58:57;94987.50;;;16.91;42.88
7834;BME280;3962;42.696;23.354;2023-02-23T12:01:37;94983.22;;;17.17;42.33
7834;BME280;3962;42.696;23.354;2023-02-23T12:04:22;94970.94;;;17.08;42.38
7834;BME280;3962;42.696;23.354;2023-02-23T12:06:49;94978.88;;;17.16;43.01
7834;BME280;3962;42.696;23.354;2023-02-23T12:09:21;94980.53;;;17.17;42.32
7834;BME280;3962;42.696;23.354;2023-02-23T12:11:53;94985.91;;;17.17;42.06
7834;BME280;3962;42.696;23.354;2023-02-23T12:14:29;94978.09;;;17.22;41.61
7834;BME280;3962;42.696;23.354;2023-02-23T12:17:02;94977.84;;;17.38;41.73
7834;BME280;3962;42.696;23.354;2023-02-23T12:19:32;94969.75;;;17.66;41.36
7834;BME280;3962;42.696;23.354;2023-02-23T12:22:04;94976.41;;;17.42;41.06
7834;BME280;3962;42.696;23.354;2023-02-23T12:24:42;94973.28;;;17.66;40.83
7834;BME280;3962;42.696;23.354;2023-02-23T12:27:16;94973.03;;;17.61;40.99
7834;BME280;3962;42.696;23.354;2023-02-23T12:30:01;94964.94;;;17.55;40.43
7834;BME280;3962;42.696;23.354;2023-02-23T12:32:38;94963.78;;;17.43;41.15
7834;BME280;3962;42.696;23.354;2023-02-23T12:35:12;94959.25;;;17.43;41.14
7834;BME280;3962;42.696;23.354;2023-02-23T12:37:43;94967.34;;;17.43;41.17
7834;BME280;3962;42.696;23.354;2023-02-23T12:40:14;94966.34;;;17.51;41.00
7834;BME280;3962;42.696;23.354;2023-02-23T12:42:45;94957.47;;;17.57;41.00
7834;BME280;3962;42.696;23.354;2023-02-23T12:45:20;94958.69;;;17.54;41.21
7834;BME280;3962;42.696;23.354;2023-02-23T12:47:58;94966.22;;;17.65;41.71
7834;BME280;3962;42.696;23.354;2023-02-23T12:50:31;94960.31;;;17.83;41.01
7834;BME280;3962;42.696;23.354;2023-02-23T12:53:06;94961.22;;;17.96;42.06
7834;BME280;3962;42.696;23.354;2023-02-23T12:55:46;94965.66;;;18.17;43.95
7834;BME280;3962;42.696;23.354;2023-02-23T12:58:22;94958.00;;;18.20;41.10
7834;BME280;3962;42.696;23.354;2023-02-23T13:00:55;94949.66;;;18.02;41.87
7834;BME280;3962;42.696;23.354;2023-02-23T13:06:38;94944.03;;;17.97;42.48
7834;BME280;3962;42.696;23.354;2023-02-23T13:09:19;94948.66;;;18.10;41.42
7834;BME280;3962;42.696;23.354;2023-02-23T13:12:06;94941.22;;;17.71;41.08
7834;BME280;3962;42.696;23.354;2023-02-23T13:14:42;94950.03;;;17.59;41.59
7834;BME280;3962;42.696;23.354;2023-02-23T13:17:26;94941.88;;;17.46;41.38
7834;BME280;3962;42.696;23.354;2023-02-23T13:20:00;94947.50;;;17.51;41.30
7834;BME280;3962;42.696;23.354;2023-02-23T13:22:33;94948.78;;;17.55;41.13
7834;BME280;3962;42.696;23.354;2023-02-23T13:25:14;94949.13;;;17.45;41.35
7834;BME280;3962;42.696;23.354;2023-02-23T13:27:47;94948.09;;;17.46;41.16
7834;BME280;3962;42.696;23.354;2023-02-23T13:30:17;94947.63;;;17.36;41.62
7834;BME280;3962;42.696;23.354;2023-02-23T13:32:45;94941.66;;;17.41;41.85
7834;BME280;3962;42.696;23.354;2023-02-23T13:35:14;94942.56;;;17.54;42.04
7834;BME280;3962;42.696;23.354;2023-02-23T13:37:46;94932.25;;;17.58;41.68
7834;BME280;3962;42.696;23.354;2023-02-23T13:40:23;94934.34;;;17.62;41.27
7834;BME280;3962;42.696;23.354;2023-02-23T13:42:59;94934.78;;;17.66;41.62
7834;BME280;3962;42.696;23.354;2023-02-23T13:45:41;94938.22;;;17.53;41.97
7834;BME280;3962;42.696;23.354;2023-02-23T13:48:17;94939.09;;;17.33;41.83
7834;BME280;3962;42.696;23.354;2023-02-23T13:50:53;94941.50;;;17.28;41.58
7834;BME280;3962;42.696;23.354;2023-02-23T13:53:37;94943.19;;;17.29;41.91
7834;BME280;3962;42.696;23.354;2023-02-23T13:56:08;94943.75;;;17.24;41.57
7834;BME280;3962;42.696;23.354;2023-02-23T13:58:35;94945.63;;;17.24;41.54
7834;BME280;3962;42.696;23.354;2023-02-23T14:01:07;94947.16;;;17.33;41.66
7834;BME280;3962;42.696;23.354;2023-02-23T14:03:42;94942.81;;;17.32;41.41
7834;BME280;3962;42.696;23.354;2023-02-23T14:06:14;94950.22;;;17.30;41.21
7834;BME280;3962;42.696;23.354;2023-02-23T14:08:50;94947.75;;;17.28;41.94
7834;BME280;3962;42.696;23.354;2023-02-23T14:11:43;94942.72;;;17.25;41.56